Canwood, Canada
Current Conditions -  °F | °C
As of 9:00 PM on Saturday 22 Nov 2014 (Local Time) from CYPA Reporting Station
Light Snow Light Snow  
Wind Chill: -3°   Ceiling: 2100
Heat Index: 14°   Visibility: 3mi
Dew Point: 10°   Wind: 17mph
Humidity: 86%   Direction: 50°NE
Pressure: 29.43"   Gusts: 24mph
Location:  53.37°N, 106.6°W
Report Text: CYPA 230300Z 05015G21KT 3SM -SN DRSN OVC021 M10/M12 A2943 RMK SC8 OCNL BLSN SLP996
Loading
Personal Weather Stations






























Interactive Weather Map New forecast layout! Learn more

10-Day Weather Forecast

Advertisements
Track Severe Weather on mobile